Time;durP1;ratioP1;P1;durP2;ratioP2;P2;SDS_P1;SDS_P2;PMS_P1;PMS_P2;Temp;Humidity;BMP_temperature;BMP_pressure;BME280_temperature;BME280_humidity;BME280_pressure;Samples;Min_cycle;Max_cycle;Signal;HPM_P1;HPM_P2
2023/04/03 00:00:29;;;;;;;3.67;1.83;;;;;;;17.38;60.73;97059.44;10363183;28;20038;-33
2023/04/03 00:05:30;;;;;;;5.10;1.67;;;;;;;17.33;60.73;97055.13;10354459;28;20039;-32
2023/04/03 00:10:30;;;;;;;3.13;1.88;;;;;;;17.32;60.82;97061.84;10335844;28;20022;-33
2023/04/03 00:15:33;;;;;;;4.03;2.00;;;;;;;17.30;60.84;97062.66;10345490;28;20023;-33
2023/04/03 00:20:34;;;;;;;4.82;2.00;;;;;;;17.30;60.89;97062.66;10341728;28;20552;-33
2023/04/03 00:25:35;;;;;;;4.15;2.00;;;;;;;17.29;60.63;97073.63;10347415;28;20034;-33
2023/04/03 00:30:35;;;;;;;3.42;1.70;;;;;;;17.33;60.18;97088.03;10340419;28;20042;-32
2023/04/03 00:35:36;;;;;;;3.50;1.50;;;;;;;17.30;60.37;97077.84;10349840;28;20398;-33
2023/04/03 00:40:38;;;;;;;3.67;1.93;;;;;;;17.31;59.93;97079.56;10347261;28;20301;-33
2023/04/03 00:45:42;;;;;;;3.17;1.80;;;;;;;17.31;60.28;97084.63;10373152;28;20265;-32
2023/04/03 00:50:44;;;;;;;3.63;2.00;;;;;;;17.41;60.71;97086.44;10347995;28;20560;-32
2023/04/03 00:55:47;;;;;;;3.55;2.00;;;;;;;17.43;61.23;97074.66;10347212;28;20041;-32
2023/04/03 01:00:56;;;;;;;5.10;2.22;;;;;;;17.43;59.50;97079.72;10348085;28;20121;-33
2023/04/03 01:05:56;;;;;;;4.30;1.63;;;;;;;17.38;60.11;97081.34;10353949;28;20457;-33
2023/04/03 01:10:57;;;;;;;3.57;1.93;;;;;;;17.32;60.25;97073.69;10322986;28;20034;-33
2023/04/03 01:16:04;;;;;;;3.67;1.52;;;;;;;17.30;60.12;97080.38;10334546;28;20383;-33
2023/04/03 01:21:46;;;;;;;4.07;1.70;;;;;;;17.28;59.93;97082.06;10336278;28;20453;-33
2023/04/03 01:26:48;;;;;;;3.28;1.83;;;;;;;17.31;59.97;97079.56;10343635;28;20034;-33
2023/04/03 01:31:55;;;;;;;3.22;1.67;;;;;;;17.31;59.44;97087.16;10334505;28;20041;-32
2023/04/03 01:36:55;;;;;;;;;;;;;;;17.31;59.78;97090.53;10337161;28;20607;-33
2023/04/03 01:41:56;;;;;;;2.47;1.60;;;;;;;17.27;59.51;97083.75;10323728;28;19999;-32
2023/04/03 01:47:10;;;;;;;2.92;1.52;;;;;;;17.30;59.65;97086.31;10354577;28;20038;-33
2023/04/03 01:52:13;;;;;;;1.65;1.00;;;;;;;17.29;59.49;97081.22;10349397;28;20045;-32
2023/04/03 01:57:17;;;;;;;2.80;1.40;;;;;;;17.37;60.37;97083.03;10362158;28;20504;-33
2023/04/03 02:02:20;;;;;;;3.95;1.75;;;;;;;17.40;60.41;97079.69;10342285;28;20038;-33
2023/04/03 02:07:20;;;;;;;2.83;1.27;;;;;;;17.39;59.45;97075.44;10374430;28;20426;-33
2023/04/03 02:12:20;;;;;;;2.60;1.40;;;;;;;17.33;59.78;97071.13;10353058;28;20042;-33
2023/04/03 02:17:21;;;;;;;1.87;1.17;;;;;;;17.28;59.66;97069.41;10333538;28;20560;-33
2023/04/03 02:22:21;;;;;;;3.42;1.75;;;;;;;17.28;59.67;97061.81;10365536;28;20501;-32
2023/04/03 02:27:22;;;;;;;3.17;1.20;;;;;;;17.29;59.40;97060.97;10358786;28;20035;-33
2023/04/03 02:32:22;;;;;;;2.90;1.33;;;;;;;17.28;59.41;97059.28;10331508;28;20076;-33
2023/04/03 02:37:23;;;;;;;1.20;0.98;;;;;;;17.29;59.25;97060.97;10344421;28;20030;-33
2023/04/03 02:42:26;;;;;;;3.20;1.20;;;;;;;17.29;59.17;97060.97;10332842;28;20033;-33
2023/04/03 02:47:27;;;;;;;2.58;1.35;;;;;;;17.27;59.25;97060.13;10323953;28;20037;-32
2023/04/03 02:52:28;;;;;;;1.70;1.02;;;;;;;17.28;59.45;97051.69;10334281;28;20471;-32
2023/04/03 02:57:31;;;;;;;2.05;1.13;;;;;;;17.27;58.89;97057.59;10331125;28;20501;-33
2023/04/03 03:02:32;;;;;;;1.73;0.90;;;;;;;17.32;60.27;97061.03;10341801;28;20092;-33
2023/04/03 03:07:33;;;;;;;2.20;1.23;;;;;;;17.35;60.16;97050.91;10355090;28;20030;-32
2023/04/03 03:12:33;;;;;;;1.77;1.17;;;;;;;17.33;60.22;97061.00;10335328;28;20034;-33
2023/04/03 03:17:33;;;;;;;1.67;1.13;;;;;;;17.32;59.35;97064.38;10356623;28;20045;-32
2023/04/03 03:22:34;;;;;;;1.40;1.00;;;;;;;17.29;59.02;97053.38;10320496;28;20042;-32
2023/04/03 03:27:35;;;;;;;1.77;1.02;;;;;;;17.30;59.13;97063.53;10332475;28;20046;-32
2023/04/03 03:32:35;;;;;;;1.80;1.05;;;;;;;17.29;58.96;97064.38;10325493;28;20034;-31
2023/04/03 03:37:36;;;;;;;1.83;1.00;;;;;;;17.30;59.37;97065.19;10341588;28;20038;-32
2023/04/03 03:42:37;;;;;;;2.50;1.73;;;;;;;17.30;58.66;97072.78;10325017;28;20423;-33
2023/04/03 03:47:39;;;;;;;5.15;1.13;;;;;;;17.31;58.22;97075.34;10332215;28;20057;-33
2023/04/03 03:52:40;;;;;;;1.10;0.73;;;;;;;17.34;58.40;97072.81;10350178;28;20038;-32
2023/04/03 03:57:40;;;;;;;2.95;0.82;;;;;;;17.33;58.63;97082.97;10311808;28;20030;-33
2023/04/03 04:02:41;;;;;;;2.05;1.00;;;;;;;17.34;58.22;97085.47;10327253;28;20487;-32
2023/04/03 04:07:45;;;;;;;2.53;1.10;;;;;;;17.38;58.20;97086.41;10319940;28;20038;-32
2023/04/03 04:12:46;;;;;;;2.17;1.05;;;;;;;17.39;58.92;97083.03;10319389;28;20026;-33
2023/04/03 04:17:47;;;;;;;1.08;0.88;;;;;;;17.44;57.01;97083.94;10353351;28;20417;-33
2023/04/03 04:22:48;;;;;;;1.30;1.08;;;;;;;17.43;58.07;97084.78;10352581;28;20229;-32
2023/04/03 04:27:49;;;;;;;3.10;1.55;;;;;;;17.43;57.14;97089.84;10338910;28;20121;-33
2023/04/03 04:32:49;;;;;;;1.52;0.80;;;;;;;17.46;56.52;97087.31;10329617;28;20042;-32
2023/04/03 04:37:50;;;;;;;1.83;1.00;;;;;;;17.46;57.28;97084.78;10351838;28;20273;-32
2023/04/03 04:42:51;;;;;;;1.45;0.93;;;;;;;17.46;56.30;97077.19;10343699;28;20038;-33
2023/04/03 04:47:55;;;;;;;1.30;0.80;;;;;;;17.46;56.65;97079.72;10335923;28;20405;-33
2023/04/03 04:52:57;;;;;;;3.03;1.00;;;;;;;17.50;56.21;97082.31;10341915;28;20046;-33
2023/04/03 04:57:58;;;;;;;4.43;1.10;;;;;;;17.41;56.03;97082.22;10331848;28;20402;-32
2023/04/03 05:02:58;;;;;;;4.60;1.15;;;;;;;17.47;55.67;97083.97;10332719;28;20069;-33
2023/04/03 05:07:59;;;;;;;3.38;1.13;;;;;;;17.48;55.66;97091.56;10334661;28;20041;-32
2023/04/03 05:12:59;;;;;;;4.70;0.90;;;;;;;17.45;56.34;97099.16;10338542;28;20038;-33
2023/04/03 05:18:01;;;;;;;3.60;1.35;;;;;;;17.49;57.55;97102.56;10335030;28;20417;-33
2023/04/03 05:23:01;;;;;;;2.47;1.40;;;;;;;17.49;56.86;97105.09;10334939;28;20041;-32
2023/04/03 05:28:02;;;;;;;2.15;1.15;;;;;;;17.47;56.33;97106.75;10368079;28;20417;-32
2023/04/03 05:33:03;;;;;;;2.30;1.65;;;;;;;17.44;56.46;97101.66;10332886;28;20038;-33
2023/04/03 05:38:11;;;;;;;2.60;1.30;;;;;;;17.41;56.04;97102.47;10329217;28;20034;-32
2023/04/03 05:43:12;;;;;;;2.00;1.00;;;;;;;17.43;55.79;97112.63;10329837;28;20486;-33
2023/04/03 05:48:15;;;;;;;4.10;0.90;;;;;;;17.36;55.89;97099.06;10343014;28;20057;-32
2023/04/03 05:53:23;;;;;;;1.85;0.90;;;;;;;17.41;55.59;97111.75;10338347;28;20120;-32
2023/04/03 05:58:24;;;;;;;4.22;1.45;;;;;;;17.41;55.66;97117.66;10332951;28;20537;-32
2023/04/03 06:03:26;;;;;;;1.70;1.00;;;;;;;17.39;56.22;97118.47;10333684;28;20383;-33
2023/04/03 06:08:27;;;;;;;1.33;0.70;;;;;;;17.40;55.63;97125.25;10339840;28;20026;-33
2023/04/03 06:13:27;;;;;;;1.47;0.90;;;;;;;17.39;56.19;97121.84;10354017;28;20032;-32
2023/04/03 06:18:27;;;;;;;1.00;0.90;;;;;;;17.38;55.59;97129.44;10341114;28;20026;-33
2023/04/03 06:23:28;;;;;;;1.25;0.90;;;;;;;17.42;56.38;97128.63;10337562;28;20293;-32
2023/04/03 06:28:29;;;;;;;1.67;1.00;;;;;;;17.43;56.25;97125.28;10321080;28;20045;-33
2023/04/03 06:33:29;;;;;;;1.95;1.20;;;;;;;17.43;54.83;97130.34;10342705;28;20168;-33
2023/04/03 06:38:30;;;;;;;1.80;0.87;;;;;;;17.40;55.22;97141.28;10347501;28;20022;-32
2023/04/03 06:43:31;;;;;;;3.00;0.95;;;;;;;17.42;55.15;97138.75;10341052;28;20285;-33
2023/04/03 06:48:31;;;;;;;5.15;0.90;;;;;;;17.42;55.15;97138.75;10356750;28;20111;-32
2023/04/03 06:53:32;;;;;;;1.92;1.10;;;;;;;17.43;55.25;97148.06;10362026;28;20037;-33
2023/04/03 06:58:32;;;;;;;2.40;1.30;;;;;;;17.41;55.95;97144.66;10354858;28;20026;-32
2023/04/03 07:03:32;;;;;;;1.80;0.90;;;;;;;17.38;55.64;97159.78;10343731;28;20029;-33
2023/04/03 07:08:34;;;;;;;2.07;0.90;;;;;;;17.38;55.22;97162.31;10345851;28;20049;-33
2023/04/03 07:13:34;;;;;;;1.48;0.88;;;;;;;17.39;55.86;97169.09;10344830;28;20042;-32
2023/04/03 07:18:35;;;;;;;3.35;0.90;;;;;;;17.39;55.50;97174.16;10333990;28;20038;-32
2023/04/03 07:23:36;;;;;;;1.10;0.90;;;;;;;17.30;54.96;97181.59;10361452;28;20042;-32
2023/04/03 07:28:36;;;;;;;7.70;2.22;;;;;;;17.37;55.38;97183.41;10359465;28;20034;-32
2023/04/03 07:33:37;;;;;;;5.97;2.50;;;;;;;17.40;55.43;97186.00;10379761;28;20076;-32
2023/04/03 07:38:38;;;;;;;1.60;0.90;;;;;;;17.38;56.26;97187.63;10360476;28;20294;-32
2023/04/03 07:43:38;;;;;;;1.87;1.13;;;;;;;17.41;56.34;97193.59;10359928;28;20076;-31
2023/04/03 07:48:38;;;;;;;7.23;1.33;;;;;;;17.41;55.31;97198.66;10350941;28;20049;-32
2023/04/03 07:53:39;;;;;;;8.02;1.77;;;;;;;17.28;53.89;97200.97;10360677;28;20038;-32
2023/04/03 07:58:39;;;;;;;11.07;1.97;;;;;;;17.31;54.47;97203.56;10356269;28;20054;-32
2023/04/03 08:03:40;;;;;;;12.63;1.67;;;;;;;17.34;56.38;97206.13;10358439;28;20041;-31
2023/04/03 08:08:41;;;;;;;4.10;1.30;;;;;;;17.32;56.83;97203.56;10349117;28;20105;-33
2023/04/03 08:13:42;;;;;;;3.83;1.42;;;;;;;17.34;56.79;97212.03;10356927;28;20120;-31
2023/04/03 08:18:43;;;;;;;4.60;1.50;;;;;;;17.35;56.40;97202.75;10347692;28;20038;-32
2023/04/03 08:23:43;;;;;;;2.67;1.43;;;;;;;17.35;56.43;97210.34;10353833;28;20414;-33
2023/04/03 08:28:44;;;;;;;4.65;1.40;;;;;;;17.32;56.27;97212.88;10349018;28;20302;-32
2023/04/03 08:33:45;;;;;;;4.18;1.55;;;;;;;17.34;56.37;97222.16;10341916;28;20045;-32
2023/04/03 08:38:46;;;;;;;3.03;1.30;;;;;;;17.39;56.39;97229.81;10358608;28;20037;-33
2023/04/03 08:43:53;;;;;;;5.43;1.83;;;;;;;17.41;56.03;97235.78;10363255;28;20033;-32
2023/04/03 08:48:54;;;;;;;1.75;1.00;;;;;;;17.33;54.31;97247.47;10355944;28;20092;-33
2023/04/03 08:54:03;;;;;;;6.30;1.30;;;;;;;17.24;52.78;97252.41;10354721;28;20116;-32
2023/04/03 08:59:23;;;;;;;1.02;0.80;;;;;;;17.20;51.31;97259.09;10355799;28;20097;-32
2023/04/03 09:04:27;;;;;;;5.65;1.10;;;;;;;17.20;50.94;97269.22;10364008;28;20103;-32
2023/04/03 09:09:34;;;;;;;2.58;0.88;;;;;;;17.13;49.77;97274.16;10361257;28;20520;-32
2023/04/03 09:14:40;;;;;;;1.20;0.80;;;;;;;17.09;48.96;97270.72;10363074;28;20041;-32
2023/04/03 09:20:07;;;;;;;1.13;0.82;;;;;;;17.05;48.52;97263.06;10367543;28;20041;-31
2023/04/03 09:25:16;;;;;;;1.30;1.10;;;;;;;17.02;47.75;97263.03;10336897;28;20108;-33
2023/04/03 09:30:21;;;;;;;2.33;0.90;;;;;;;17.01;47.80;97247.03;10356230;28;20079;-32
2023/04/03 09:35:26;;;;;;;7.32;1.08;;;;;;;17.02;47.33;97245.34;10364219;28;20091;-32
2023/04/03 09:40:26;;;;;;;1.45;0.82;;;;;;;17.03;46.91;97247.03;10348831;28;20064;-32
2023/04/03 09:45:33;;;;;;;1.23;0.93;;;;;;;17.22;49.28;97252.38;10357100;28;20061;-32
2023/04/03 09:50:35;;;;;;;2.60;1.25;;;;;;;17.28;54.38;97251.59;10349350;28;20107;-32
2023/04/03 09:55:43;;;;;;;0.93;0.85;;;;;;;17.22;47.55;97259.09;10378910;28;20041;-32
2023/04/03 10:00:53;;;;;;;1.00;0.90;;;;;;;17.16;47.19;97251.44;10362236;28;20520;-32
2023/04/03 10:05:57;;;;;;;2.03;1.27;;;;;;;17.09;46.84;97249.66;10359347;28;20064;-33
2023/04/03 10:11:16;;;;;;;1.33;0.98;;;;;;;17.05;46.44;97242.84;10352258;28;20124;-32
2023/04/03 10:16:22;;;;;;;2.45;1.40;;;;;;;17.06;45.94;97250.47;10348468;28;20058;-33
2023/04/03 10:21:46;;;;;;;1.95;1.25;;;;;;;17.12;46.85;97260.66;10354524;28;20029;-32
2023/04/03 10:27:00;;;;;;;2.58;1.13;;;;;;;17.17;46.88;97248.09;10358983;28;20081;-32
2023/04/03 10:32:12;;;;;;;1.52;1.42;;;;;;;17.17;47.54;97248.09;10345513;28;20117;-32
2023/04/03 10:38:00;;;;;;;4.38;1.83;;;;;;;17.14;46.40;97246.34;10348077;28;20030;-31
2023/04/03 10:43:09;;;;;;;3.00;1.17;;;;;;;17.13;47.08;97251.38;10285546;28;20089;-32
2023/04/03 10:48:45;;;;;;;8.05;2.08;;;;;;;17.15;47.63;97237.94;10353015;28;20057;-32
2023/04/03 10:54:10;;;;;;;3.58;1.42;;;;;;;17.25;52.95;97251.56;10345005;28;20048;-32
2023/04/03 10:59:32;;;;;;;2.70;1.55;;;;;;;17.26;52.70;97238.06;10342489;28;20035;-32
2023/04/03 11:04:37;;;;;;;2.90;1.50;;;;;;;17.26;51.34;97238.91;10339171;28;20333;-32
2023/04/03 11:09:43;;;;;;;1.92;1.20;;;;;;;17.18;47.63;97234.59;10339820;28;20042;-32
2023/04/03 11:14:46;;;;;;;2.83;1.43;;;;;;;17.19;48.47;97233.75;10337575;28;20073;-32
2023/04/03 11:19:56;;;;;;;3.60;1.10;;;;;;;17.19;47.52;97226.19;10350671;28;20113;-31
2023/04/03 11:25:16;;;;;;;1.10;0.90;;;;;;;17.21;46.87;97235.50;10341295;28;20072;-32
2023/04/03 11:30:25;;;;;;;1.67;1.30;;;;;;;17.25;47.22;97213.63;10344746;28;20038;-32
2023/04/03 11:35:27;;;;;;;2.95;1.15;;;;;;;17.19;49.15;97219.44;10339057;28;20104;-32
2023/04/03 11:40:32;;;;;;;2.90;1.20;;;;;;;17.21;47.26;97214.38;10350554;28;20041;-32
2023/04/03 11:45:36;;;;;;;2.42;1.35;;;;;;;17.19;48.15;97209.31;10342338;28;20042;-32
2023/04/03 11:50:37;;;;;;;1.85;1.15;;;;;;;17.20;47.76;97200.03;10348419;28;20038;-32
2023/04/03 11:55:49;;;;;;;1.38;1.10;;;;;;;17.16;48.11;97205.91;10350919;28;20568;-32
2023/04/03 12:00:52;;;;;;;2.35;1.42;;;;;;;17.22;48.30;97195.84;10350513;28;20124;-31
2023/04/03 12:06:04;;;;;;;1.98;1.27;;;;;;;17.27;53.55;97194.22;10342218;28;20556;-31
2023/04/03 12:11:14;;;;;;;2.80;1.52;;;;;;;17.26;53.13;97197.59;10348573;28;20401;-33
2023/04/03 12:16:28;;;;;;;1.48;1.13;;;;;;;17.21;47.58;97196.69;10349527;28;20026;-32
2023/04/03 12:21:43;;;;;;;1.80;1.08;;;;;;;17.15;46.68;97204.22;10355668;28;21476;-32
2023/04/03 12:27:13;;;;;;;1.08;0.98;;;;;;;17.16;46.77;97200.84;10360242;28;20035;-32
2023/04/03 12:32:36;;;;;;;4.72;1.50;;;;;;;17.02;45.39;97187.16;10356524;28;20089;-32
2023/04/03 12:37:42;;;;;;;5.30;1.00;;;;;;;17.11;45.72;97197.41;10360915;28;20038;-32
2023/04/03 12:43:04;;;;;;;3.33;1.13;;;;;;;17.17;48.30;97194.94;10356031;28;20037;-32
2023/04/03 12:48:13;;;;;;;2.50;1.15;;;;;;;17.16;48.80;97200.84;10365070;28;20113;-32
2023/04/03 12:53:25;;;;;;;1.40;1.10;;;;;;;17.21;47.29;97199.19;10356686;28;20029;-32
2023/04/03 12:58:27;;;;;;;3.13;1.08;;;;;;;17.20;46.85;97187.38;10351559;28;20410;-32
2023/04/03 13:03:28;;;;;;;1.08;0.98;;;;;;;17.20;46.64;97187.38;10366555;28;20414;-32
2023/04/03 13:08:30;;;;;;;1.17;1.05;;;;;;;17.19;45.68;97181.50;10349955;28;20514;-32
2023/04/03 13:13:30;;;;;;;1.15;1.05;;;;;;;17.24;45.50;97181.56;10366773;28;20033;-31
2023/04/03 13:18:34;;;;;;;7.35;1.20;;;;;;;17.26;46.04;97172.28;10347852;28;20482;-32
2023/04/03 13:23:38;;;;;;;3.25;1.13;;;;;;;17.25;47.36;97173.94;10354757;28;20038;-32
2023/04/03 13:28:40;;;;;;;2.08;1.30;;;;;;;17.16;49.17;97173.00;10363483;28;20030;-31
2023/04/03 13:34:03;;;;;;;3.35;1.05;;;;;;;17.09;45.78;97168.69;10348562;28;20038;-32
2023/04/03 13:39:18;;;;;;;3.47;1.30;;;;;;;16.97;45.67;97169.41;10359982;28;20042;-32
2023/04/03 13:44:21;;;;;;;3.33;1.10;;;;;;;17.09;45.45;97158.59;10343378;28;20045;-32
2023/04/03 13:49:30;;;;;;;2.92;0.80;;;;;;;17.13;44.53;97165.38;10347395;28;20050;-32
2023/04/03 13:54:38;;;;;;;2.33;1.27;;;;;;;17.15;45.23;97163.72;10348822;28;20041;-33
2023/04/03 13:59:39;;;;;;;5.53;1.20;;;;;;;16.99;43.91;97161.84;10347582;28;20074;-32
2023/04/03 14:04:39;;;;;;;1.90;1.15;;;;;;;17.10;46.87;97155.22;10342364;28;20129;-32
2023/04/03 14:09:40;;;;;;;2.97;1.07;;;;;;;16.81;44.05;97151.50;10352006;28;20048;-33
2023/04/03 14:14:43;;;;;;;3.70;1.35;;;;;;;16.88;44.77;97153.25;10356130;28;20063;-32
2023/04/03 14:19:45;;;;;;;6.32;1.40;;;;;;;17.02;45.04;97146.69;10348413;28;20117;-33
2023/04/03 14:24:46;;;;;;;3.80;2.05;;;;;;;17.13;46.31;97142.59;10354721;28;20424;-32
2023/04/03 14:29:50;;;;;;;12.00;1.60;;;;;;;17.14;49.48;97137.56;10344486;28;20410;-32
2023/04/03 14:34:50;;;;;;;2.75;1.10;;;;;;;17.09;47.91;97138.34;10362932;28;20121;-33
2023/04/03 14:39:53;;;;;;;2.30;1.20;;;;;;;17.06;46.66;97141.69;10337547;28;20113;-32
2023/04/03 14:44:53;;;;;;;1.27;0.95;;;;;;;17.06;46.72;97139.16;10340293;28;20030;-33
2023/04/03 14:49:54;;;;;;;4.03;1.00;;;;;;;17.06;46.98;97126.50;10344979;28;20029;-33
2023/04/03 14:54:55;;;;;;;1.75;1.10;;;;;;;17.07;48.14;97124.84;10349914;28;20288;-33
2023/04/03 14:59:56;;;;;;;1.65;1.15;;;;;;;17.10;45.62;97135.84;10340442;28;20034;-32
2023/04/03 15:04:58;;;;;;;1.20;0.90;;;;;;;17.11;45.09;97137.53;10350769;28;20080;-33
2023/04/03 15:10:03;;;;;;;1.15;0.80;;;;;;;17.11;44.13;97136.69;10351906;28;20033;-32
2023/04/03 15:15:03;;;;;;;1.30;0.90;;;;;;;17.11;44.32;97131.63;10337085;28;20441;-32
2023/04/03 15:20:14;;;;;;;1.45;1.20;;;;;;;17.09;44.23;97128.22;10340478;28;20040;-32
2023/04/03 15:25:14;;;;;;;6.60;1.30;;;;;;;17.03;43.66;97143.31;10344038;28;20061;-32
2023/04/03 15:30:17;;;;;;;2.50;1.98;;;;;;;16.84;42.56;97141.41;10358502;28;20079;-31
2023/04/03 15:35:17;;;;;;;5.20;1.42;;;;;;;16.78;41.56;97148.91;10351251;28;20042;-33
2023/04/03 15:40:18;;;;;;;2.88;1.75;;;;;;;16.99;45.01;97141.59;10342607;28;20402;-32
2023/04/03 15:45:18;;;;;;;4.63;1.23;;;;;;;16.99;47.43;97146.66;10353595;28;20034;-32
2023/04/03 15:50:19;;;;;;;3.93;1.60;;;;;;;16.95;48.02;97149.97;10337485;28;20296;-32
2023/04/03 15:55:23;;;;;;;5.97;1.83;;;;;;;16.99;48.16;97149.19;10343431;28;20650;-33
2023/04/03 16:00:25;;;;;;;5.35;1.95;;;;;;;16.98;49.01;97134.84;10343466;28;20297;-32
2023/04/03 16:05:26;;;;;;;6.35;1.30;;;;;;;16.99;47.35;97139.91;10353051;28;20113;-32
2023/04/03 16:10:27;;;;;;;8.88;1.90;;;;;;;16.77;41.13;97135.41;10352279;28;20125;-31
2023/04/03 16:15:29;;;;;;;5.57;1.50;;;;;;;16.74;43.90;97139.59;10369942;28;20034;-32
2023/04/03 16:20:29;;;;;;;7.10;1.85;;;;;;;16.87;45.19;97142.28;10389588;28;20029;-32
2023/04/03 16:25:30;;;;;;;3.25;1.42;;;;;;;16.93;44.65;97136.47;10357819;28;20046;-33
2023/04/03 16:30:31;;;;;;;3.80;1.35;;;;;;;16.98;46.31;97137.38;10356612;28;20068;-33
2023/04/03 16:35:31;;;;;;;5.07;1.42;;;;;;;17.03;45.03;97139.13;10350721;28;20121;-33
2023/04/03 16:40:33;;;;;;;1.50;1.20;;;;;;;17.07;44.83;97140.03;10358483;28;20026;-32
2023/04/03 16:45:34;;;;;;;4.93;1.45;;;;;;;17.16;45.31;97147.72;10362863;28;20392;-32
2023/04/03 16:50:35;;;;;;;2.20;0.82;;;;;;;17.18;44.35;97140.97;10344079;28;20042;-33
2023/04/03 16:55:35;;;;;;;2.55;1.20;;;;;;;17.11;45.71;97141.75;10352906;28;20481;-33
2023/04/03 17:00:36;;;;;;;4.30;1.50;;;;;;;17.08;44.96;97146.78;10345437;28;20042;-32
2023/04/03 17:05:36;;;;;;;1.90;1.20;;;;;;;17.10;45.18;97151.03;10359286;28;20034;-33
2023/04/03 17:10:37;;;;;;;2.47;1.17;;;;;;;17.05;44.81;97152.63;10371435;28;20441;-33
2023/04/03 17:15:37;;;;;;;4.00;1.40;;;;;;;17.08;45.49;97152.66;10360311;28;20596;-33
2023/04/03 17:20:38;;;;;;;4.40;1.08;;;;;;;17.01;42.94;97147.53;10383706;28;20303;-33
2023/04/03 17:25:38;;;;;;;1.40;0.98;;;;;;;16.95;42.28;97150.81;10366039;28;20034;-30
2023/04/03 17:30:38;;;;;;;1.00;0.90;;;;;;;16.95;42.11;97148.31;10361301;28;20041;-33
2023/04/03 17:35:39;;;;;;;2.00;0.97;;;;;;;16.79;42.28;97153.13;10349807;28;20510;-32
2023/04/03 17:40:39;;;;;;;3.40;1.00;;;;;;;16.77;42.09;97154.78;10339030;28;20080;-33
2023/04/03 17:45:39;;;;;;;3.03;1.40;;;;;;;16.77;42.25;97156.47;10349168;28;20502;-33
2023/04/03 17:50:40;;;;;;;1.87;0.83;;;;;;;16.89;42.30;97154.97;10349614;28;20116;-32
2023/04/03 17:55:40;;;;;;;2.23;1.10;;;;;;;17.03;45.97;97158.50;10349155;28;20034;-32
2023/04/03 18:00:40;;;;;;;3.35;1.20;;;;;;;17.06;48.89;97153.50;10351871;28;20077;-32
2023/04/03 18:05:41;;;;;;;2.80;1.10;;;;;;;17.09;43.50;97158.59;10357576;28;20070;-33
2023/04/03 18:10:41;;;;;;;1.77;1.20;;;;;;;17.06;42.11;97154.34;10354301;28;20285;-31
2023/04/03 18:15:44;;;;;;;2.65;1.40;;;;;;;16.98;42.56;97162.66;10355820;28;20513;-32
2023/04/03 18:20:45;;;;;;;8.65;1.38;;;;;;;16.96;43.89;97166.84;10354269;28;20040;-33
2023/04/03 18:25:45;;;;;;;2.38;1.65;;;;;;;17.00;42.62;97161.84;10333673;28;20034;-33
2023/04/03 18:30:46;;;;;;;2.83;1.85;;;;;;;16.98;42.04;97170.25;10329435;28;20080;-33
2023/04/03 18:35:46;;;;;;;4.40;2.53;;;;;;;16.89;42.49;97160.03;10330683;28;20026;-33
2023/04/03 18:40:48;;;;;;;1.90;1.60;;;;;;;16.97;42.12;97169.41;10343507;23;20054;-29
2023/04/03 18:45:49;;;;;;;4.05;1.60;;;;;;;16.93;43.25;97180.31;10343935;28;20066;-29
2023/04/03 18:50:49;;;;;;;2.77;1.60;;;;;;;16.87;41.93;97175.16;10344194;28;20053;-30
2023/04/03 18:55:49;;;;;;;3.63;1.53;;;;;;;16.82;41.75;97178.47;10327525;28;20097;-29
2023/04/03 19:00:50;;;;;;;3.07;1.40;;;;;;;16.79;41.41;97183.47;10345476;28;20367;-29
2023/04/03 19:05:50;;;;;;;2.53;1.43;;;;;;;16.90;41.92;97181.97;10341097;28;20038;-29
2023/04/03 19:10:51;;;;;;;6.60;2.10;;;;;;;16.98;43.55;97176.16;10342119;28;20030;-29
2023/04/03 19:15:51;;;;;;;2.40;1.50;;;;;;;16.94;41.64;97173.56;10336504;28;20289;-29
2023/04/03 19:20:55;;;;;;;1.30;1.20;;;;;;;16.88;41.57;97173.47;10342537;28;20084;-30
2023/04/03 19:26:00;;;;;;;1.25;1.10;;;;;;;16.89;41.64;97170.16;10325857;28;20053;-30
2023/04/03 19:31:01;;;;;;;1.73;1.40;;;;;;;16.89;41.67;97175.19;10329600;28;20046;-30
2023/04/03 19:36:04;;;;;;;1.42;1.20;;;;;;;16.88;41.45;97176.00;10340458;28;20033;-30
2023/04/03 19:41:07;;;;;;;2.10;1.30;;;;;;;16.81;41.63;97172.56;10332021;28;20088;-30
2023/04/03 19:46:08;;;;;;;1.80;1.20;;;;;;;16.79;41.32;97175.88;10334470;28;20033;-30
2023/04/03 19:51:09;;;;;;;2.95;1.42;;;;;;;16.77;41.43;97175.00;10341597;28;20050;-30
2023/04/03 19:56:09;;;;;;;1.58;1.25;;;;;;;16.79;40.99;97173.34;10333851;28;20038;-30
2023/04/03 20:01:10;;;;;;;1.40;1.30;;;;;;;16.72;40.80;97170.72;10324252;28;20487;-29
2023/04/03 20:06:10;;;;;;;1.65;1.15;;;;;;;16.70;41.40;97170.69;10342357;28;20038;-30
2023/04/03 20:11:11;;;;;;;1.80;1.27;;;;;;;16.70;40.97;97170.69;10348622;28;20080;-29
2023/04/03 20:16:11;;;;;;;1.73;1.20;;;;;;;16.73;40.65;97163.19;10333127;28;20030;-29
2023/04/03 20:21:12;;;;;;;1.63;1.20;;;;;;;16.86;40.86;97154.91;10336293;28;20503;-29
2023/04/03 20:26:22;;;;;;;2.42;1.25;;;;;;;16.88;41.36;97159.16;10343905;28;20300;-29
2023/04/03 20:31:24;;;;;;;1.63;1.10;;;;;;;16.78;40.67;97153.97;10342192;28;20032;-29
2023/04/03 20:36:27;;;;;;;4.55;1.58;;;;;;;16.69;41.41;97148.78;10341370;28;20109;-30
2023/04/03 20:41:28;;;;;;;2.63;1.42;;;;;;;16.65;40.82;97144.53;10343874;28;20124;-30
2023/04/03 20:46:31;;;;;;;2.03;1.27;;;;;;;16.65;40.57;97149.56;10336727;28;20558;-30
2023/04/03 20:51:31;;;;;;;2.58;1.20;;;;;;;16.62;40.76;97148.69;10334253;28;20033;-30
2023/04/03 20:56:32;;;;;;;2.67;1.50;;;;;;;16.68;48.46;97149.59;10349401;28;20395;-29
2023/04/03 21:01:32;;;;;;;2.95;1.60;;;;;;;16.65;48.78;97149.56;10337507;28;20525;-29
2023/04/03 21:07:11;;;;;;;3.75;1.38;;;;;;;16.70;45.77;97137.00;10346870;28;20041;-30
2023/04/03 21:12:49;;;;;;;3.85;1.50;;;;;;;16.72;48.59;97136.19;10346185;28;20121;-29
2023/04/03 21:18:07;;;;;;;4.88;1.40;;;;;;;16.72;48.33;97140.38;10347649;28;20230;-30
2023/04/03 21:23:08;;;;;;;3.28;1.30;;;;;;;16.67;48.01;97128.53;10353000;28;20052;-29
2023/04/03 21:28:08;;;;;;;2.22;1.40;;;;;;;16.73;47.64;97131.13;10346985;28;20037;-29
2023/04/03 21:33:08;;;;;;;1.33;0.90;;;;;;;16.85;48.79;97128.78;10353692;28;20034;-30
2023/04/03 21:38:09;;;;;;;3.03;1.50;;;;;;;16.88;48.70;97131.34;10343457;28;20040;-30
2023/04/03 21:43:09;;;;;;;4.10;1.75;;;;;;;16.73;47.64;97131.13;10338834;28;20034;-29
2023/04/03 21:48:12;;;;;;;2.77;1.63;;;;;;;16.74;48.33;97139.59;10352094;28;20038;-29
2023/04/03 21:53:14;;;;;;;2.47;1.50;;;;;;;16.77;48.04;97126.97;10350587;28;20025;-29
2023/04/03 21:58:14;;;;;;;1.85;1.15;;;;;;;16.73;48.84;97131.13;10344741;28;20068;-29
2023/04/03 22:03:19;;;;;;;1.30;1.20;;;;;;;16.75;48.65;97138.75;10359698;28;20052;-30
2023/04/03 22:08:21;;;;;;;2.20;1.30;;;;;;;16.75;48.13;97123.59;10332643;28;20079;-29
2023/04/03 22:13:21;;;;;;;2.70;1.33;;;;;;;16.74;47.79;97117.66;10346120;28;20054;-29
2023/04/03 22:18:22;;;;;;;1.83;1.33;;;;;;;16.75;48.61;97123.59;10348881;28;20022;-30
2023/04/03 22:23:23;;;;;;;1.48;1.27;;;;;;;16.74;47.23;97111.78;10335035;28;20445;-30
2023/04/03 22:28:23;;;;;;;2.15;1.40;;;;;;;16.73;47.47;97127.78;10345580;28;20034;-31
2023/04/03 22:33:24;;;;;;;2.40;1.30;;;;;;;16.72;45.71;97115.97;10352519;28;20029;-31
2023/04/03 22:38:24;;;;;;;3.40;1.27;;;;;;;16.73;47.68;97118.50;10340631;28;20030;-31
2023/04/03 22:43:26;;;;;;;1.67;1.00;;;;;;;16.81;46.45;97121.16;10347551;28;20537;-32
2023/04/03 22:48:27;;;;;;;1.65;1.27;;;;;;;16.84;48.11;97111.88;10353072;28;20324;-31
2023/04/03 22:53:27;;;;;;;2.65;1.27;;;;;;;16.81;47.55;97121.16;10350569;28;20461;-31
2023/04/03 22:58:28;;;;;;;2.15;1.13;;;;;;;16.70;47.99;97121.84;10343404;28;20097;-31
2023/04/03 23:03:29;;;;;;;1.17;0.95;;;;;;;16.71;48.27;97126.88;10354797;28;20547;-32
2023/04/03 23:08:30;;;;;;;2.03;1.10;;;;;;;16.68;47.67;97119.28;10340138;28;20033;-31
2023/04/03 23:13:30;;;;;;;2.08;1.17;;;;;;;16.70;48.29;97124.34;10344659;28;20095;-32
2023/04/03 23:18:31;;;;;;;2.57;1.27;;;;;;;16.68;47.50;97121.81;10345986;28;20096;-32
2023/04/03 23:23:32;;;;;;;2.50;1.58;;;;;;;16.71;47.69;97113.41;10341120;28;20045;-31
2023/04/03 23:28:32;;;;;;;1.63;1.10;;;;;;;16.69;47.72;97126.03;10340593;28;20039;-32